sensor_id;sensor_type;location;lat;lon;timestamp;temperature;humidity
4787;DHT22;62338;48.832;9.422;2022-10-31T00:00:13;13.40;99.90
4787;DHT22;62338;48.832;9.422;2022-10-31T00:02:15;13.40;99.90
4787;DHT22;62338;48.832;9.422;2022-10-31T00:04:16;13.30;99.90
4787;DHT22;62338;48.832;9.422;2022-10-31T00:06:18;13.30;99.90
4787;DHT22;62338;48.832;9.422;2022-10-31T00:08:20;13.30;99.90
4787;DHT22;62338;48.832;9.422;2022-10-31T00:10:21;13.30;99.90
4787;DHT22;62338;48.832;9.422;2022-10-31T00:12:23;13.30;99.90
4787;DHT22;62338;48.832;9.422;2022-10-31T00:14:25;13.30;99.90
4787;DHT22;62338;48.832;9.422;2022-10-31T00:16:27;13.30;99.90
4787;DHT22;62338;48.832;9.422;2022-10-31T00:18:29;13.30;99.90
4787;DHT22;62338;48.832;9.422;2022-10-31T00:20:31;13.30;99.90
4787;DHT22;62338;48.832;9.422;2022-10-31T00:22:32;13.30;99.90
4787;DHT22;62338;48.832;9.422;2022-10-31T00:24:34;13.20;99.90
4787;DHT22;62338;48.832;9.422;2022-10-31T00:26:36;13.10;99.90
4787;DHT22;62338;48.832;9.422;2022-10-31T00:28:37;13.10;99.90
4787;DHT22;62338;48.832;9.422;2022-10-31T00:30:39;13.10;99.90
4787;DHT22;62338;48.832;9.422;2022-10-31T00:32:41;13.10;99.90
4787;DHT22;62338;48.832;9.422;2022-10-31T00:34:42;13.10;99.90
4787;DHT22;62338;48.832;9.422;2022-10-31T00:36:44;13.20;99.90
4787;DHT22;62338;48.832;9.422;2022-10-31T00:38:47;13.20;99.90
4787;DHT22;62338;48.832;9.422;2022-10-31T00:40:49;13.30;99.90
4787;DHT22;62338;48.832;9.422;2022-10-31T00:42:50;13.30;99.90
4787;DHT22;62338;48.832;9.422;2022-10-31T00:44:52;13.30;99.90
4787;DHT22;62338;48.832;9.422;2022-10-31T00:46:54;13.30;99.90
4787;DHT22;62338;48.832;9.422;2022-10-31T00:48:56;13.30;99.90
4787;DHT22;62338;48.832;9.422;2022-10-31T00:50:57;13.30;99.90
4787;DHT22;62338;48.832;9.422;2022-10-31T00:52:59;13.30;99.90
4787;DHT22;62338;48.832;9.422;2022-10-31T00:55:01;13.30;99.90
4787;DHT22;62338;48.832;9.422;2022-10-31T00:57:03;13.30;99.90
4787;DHT22;62338;48.832;9.422;2022-10-31T00:59:04;13.30;99.90
4787;DHT22;62338;48.832;9.422;2022-10-31T01:01:06;13.30;99.90
4787;DHT22;62338;48.832;9.422;2022-10-31T01:03:08;13.30;99.90
4787;DHT22;62338;48.832;9.422;2022-10-31T01:05:10;13.30;99.90
4787;DHT22;62338;48.832;9.422;2022-10-31T01:07:12;13.20;99.90
4787;DHT22;62338;48.832;9.422;2022-10-31T01:09:15;13.20;99.90
4787;DHT22;62338;48.832;9.422;2022-10-31T01:11:20;13.20;99.90
4787;DHT22;62338;48.832;9.422;2022-10-31T01:13:22;13.30;99.90
4787;DHT22;62338;48.832;9.422;2022-10-31T01:15:23;13.30;99.90
4787;DHT22;62338;48.832;9.422;2022-10-31T01:17:25;13.40;99.90
4787;DHT22;62338;48.832;9.422;2022-10-31T01:19:26;13.40;99.90
4787;DHT22;62338;48.832;9.422;2022-10-31T01:21:29;13.50;99.90
4787;DHT22;62338;48.832;9.422;2022-10-31T01:23:31;13.50;99.90
4787;DHT22;62338;48.832;9.422;2022-10-31T01:25:33;13.40;99.90
4787;DHT22;62338;48.832;9.422;2022-10-31T01:27:35;13.20;99.90
4787;DHT22;62338;48.832;9.422;2022-10-31T01:29:37;13.20;99.90
4787;DHT22;62338;48.832;9.422;2022-10-31T01:31:39;13.20;99.90
4787;DHT22;62338;48.832;9.422;2022-10-31T01:33:41;13.10;99.90
4787;DHT22;62338;48.832;9.422;2022-10-31T01:35:43;13.10;99.90
4787;DHT22;62338;48.832;9.422;2022-10-31T01:37:45;13.10;99.90
4787;DHT22;62338;48.832;9.422;2022-10-31T01:39:48;13.20;99.90
4787;DHT22;62338;48.832;9.422;2022-10-31T01:41:51;13.10;99.90
4787;DHT22;62338;48.832;9.422;2022-10-31T01:46:30;13.10;99.90
4787;DHT22;62338;48.832;9.422;2022-10-31T01:48:32;13.10;99.90
4787;DHT22;62338;48.832;9.422;2022-10-31T01:50:36;13.10;99.90
4787;DHT22;62338;48.832;9.422;2022-10-31T01:52:45;13.10;99.90
4787;DHT22;62338;48.832;9.422;2022-10-31T01:54:59;13.10;99.90
4787;DHT22;62338;48.832;9.422;2022-10-31T01:57:03;13.10;99.90
4787;DHT22;62338;48.832;9.422;2022-10-31T01:59:08;13.10;99.90
4787;DHT22;62338;48.832;9.422;2022-10-31T02:01:12;13.00;99.90
4787;DHT22;62338;48.832;9.422;2022-10-31T02:03:16;13.00;99.90
4787;DHT22;62338;48.832;9.422;2022-10-31T02:05:22;13.10;99.90
4787;DHT22;62338;48.832;9.422;2022-10-31T02:07:30;13.10;99.90
4787;DHT22;62338;48.832;9.422;2022-10-31T02:09:34;13.20;99.90
4787;DHT22;62338;48.832;9.422;2022-10-31T02:11:38;13.30;99.90
4787;DHT22;62338;48.832;9.422;2022-10-31T02:13:40;13.30;99.90
4787;DHT22;62338;48.832;9.422;2022-10-31T02:15:43;13.40;99.90
4787;DHT22;62338;48.832;9.422;2022-10-31T02:17:46;13.40;99.90
4787;DHT22;62338;48.832;9.422;2022-10-31T02:20:13;13.40;99.90
4787;DHT22;62338;48.832;9.422;2022-10-31T02:22:54;13.40;99.90
4787;DHT22;62338;48.832;9.422;2022-10-31T02:32:20;13.50;99.90
4787;DHT22;62338;48.832;9.422;2022-10-31T02:39:20;13.50;99.90
4787;DHT22;62338;48.832;9.422;2022-10-31T02:41:36;13.50;99.90
4787;DHT22;62338;48.832;9.422;2022-10-31T02:46:10;13.50;99.90
4787;DHT22;62338;48.832;9.422;2022-10-31T02:48:18;13.50;99.90
4787;DHT22;62338;48.832;9.422;2022-10-31T02:50:28;13.50;99.90
4787;DHT22;62338;48.832;9.422;2022-10-31T02:52:33;13.40;99.90
4787;DHT22;62338;48.832;9.422;2022-10-31T02:54:35;13.30;99.90
4787;DHT22;62338;48.832;9.422;2022-10-31T02:56:37;13.20;99.90
4787;DHT22;62338;48.832;9.422;2022-10-31T02:58:52;13.20;99.90
4787;DHT22;62338;48.832;9.422;2022-10-31T03:01:13;13.10;99.90
4787;DHT22;62338;48.832;9.422;2022-10-31T03:10:52;13.00;99.90
4787;DHT22;62338;48.832;9.422;2022-10-31T03:15:29;12.90;99.90
4787;DHT22;62338;48.832;9.422;2022-10-31T03:18:26;12.80;99.90
4787;DHT22;62338;48.832;9.422;2022-10-31T03:20:04;12.80;99.90
4787;DHT22;62338;48.832;9.422;2022-10-31T03:24:15;12.70;99.90
4787;DHT22;62338;48.832;9.422;2022-10-31T03:26:17;12.80;99.90
4787;DHT22;62338;48.832;9.422;2022-10-31T03:28:28;12.80;99.90
4787;DHT22;62338;48.832;9.422;2022-10-31T03:30:33;12.80;99.90
4787;DHT22;62338;48.832;9.422;2022-10-31T03:32:41;12.80;99.90
4787;DHT22;62338;48.832;9.422;2022-10-31T03:34:45;12.80;99.90
4787;DHT22;62338;48.832;9.422;2022-10-31T03:36:55;12.80;99.90
4787;DHT22;62338;48.832;9.422;2022-10-31T03:38:59;12.90;99.90
4787;DHT22;62338;48.832;9.422;2022-10-31T03:41:04;12.90;99.90
4787;DHT22;62338;48.832;9.422;2022-10-31T03:43:12;12.90;99.90
4787;DHT22;62338;48.832;9.422;2022-10-31T03:45:26;12.80;99.90
4787;DHT22;62338;48.832;9.422;2022-10-31T03:47:29;12.80;99.90
4787;DHT22;62338;48.832;9.422;2022-10-31T03:49:31;12.70;99.90
4787;DHT22;62338;48.832;9.422;2022-10-31T03:53:55;12.80;99.90
4787;DHT22;62338;48.832;9.422;2022-10-31T03:56:02;12.80;99.90
4787;DHT22;62338;48.832;9.422;2022-10-31T03:58:10;12.80;99.90
4787;DHT22;62338;48.832;9.422;2022-10-31T04:00:15;12.80;99.90
4787;DHT22;62338;48.832;9.422;2022-10-31T04:02:20;12.90;99.90
4787;DHT22;62338;48.832;9.422;2022-10-31T04:04:24;12.90;99.90
4787;DHT22;62338;48.832;9.422;2022-10-31T04:06:26;12.80;99.90
4787;DHT22;62338;48.832;9.422;2022-10-31T04:08:30;12.80;99.90
4787;DHT22;62338;48.832;9.422;2022-10-31T04:10:34;12.70;99.90
4787;DHT22;62338;48.832;9.422;2022-10-31T04:12:39;12.70;99.90
4787;DHT22;62338;48.832;9.422;2022-10-31T04:14:44;12.70;99.90
4787;DHT22;62338;48.832;9.422;2022-10-31T04:16:47;12.80;99.90
4787;DHT22;62338;48.832;9.422;2022-10-31T04:18:49;12.70;99.90
4787;DHT22;62338;48.832;9.422;2022-10-31T04:21:00;12.70;99.90
4787;DHT22;62338;48.832;9.422;2022-10-31T04:23:03;12.60;99.90
4787;DHT22;62338;48.832;9.422;2022-10-31T04:25:05;12.50;99.90
4787;DHT22;62338;48.832;9.422;2022-10-31T04:27:07;12.50;99.90
4787;DHT22;62338;48.832;9.422;2022-10-31T04:29:09;12.50;99.90
4787;DHT22;62338;48.832;9.422;2022-10-31T04:31:11;12.50;99.90
4787;DHT22;62338;48.832;9.422;2022-10-31T04:33:13;12.50;99.90
4787;DHT22;62338;48.832;9.422;2022-10-31T04:35:15;12.50;99.90
4787;DHT22;62338;48.832;9.422;2022-10-31T04:37:17;12.50;99.90
4787;DHT22;62338;48.832;9.422;2022-10-31T04:39:19;12.50;99.90
4787;DHT22;62338;48.832;9.422;2022-10-31T04:41:27;12.50;99.90
4787;DHT22;62338;48.832;9.422;2022-10-31T04:43:28;12.40;99.90
4787;DHT22;62338;48.832;9.422;2022-10-31T04:45:30;12.40;99.90
4787;DHT22;62338;48.832;9.422;2022-10-31T04:47:33;12.40;99.90
4787;DHT22;62338;48.832;9.422;2022-10-31T04:49:34;12.30;99.90
4787;DHT22;62338;48.832;9.422;2022-10-31T04:51:36;12.30;99.90
4787;DHT22;62338;48.832;9.422;2022-10-31T04:53:38;12.20;99.90
4787;DHT22;62338;48.832;9.422;2022-10-31T04:55:39;12.20;99.90
4787;DHT22;62338;48.832;9.422;2022-10-31T04:59:43;12.20;99.90
4787;DHT22;62338;48.832;9.422;2022-10-31T05:01:45;12.20;99.90
4787;DHT22;62338;48.832;9.422;2022-10-31T05:03:47;12.20;99.90
4787;DHT22;62338;48.832;9.422;2022-10-31T05:05:49;12.30;99.90
4787;DHT22;62338;48.832;9.422;2022-10-31T05:07:51;12.30;99.90
4787;DHT22;62338;48.832;9.422;2022-10-31T05:09:53;12.40;99.90
4787;DHT22;62338;48.832;9.422;2022-10-31T05:11:55;12.40;99.90
4787;DHT22;62338;48.832;9.422;2022-10-31T05:13:56;12.40;99.90
4787;DHT22;62338;48.832;9.422;2022-10-31T05:15:58;12.50;99.90
4787;DHT22;62338;48.832;9.422;2022-10-31T05:18:00;12.40;99.90
4787;DHT22;62338;48.832;9.422;2022-10-31T05:20:03;12.40;99.90
4787;DHT22;62338;48.832;9.422;2022-10-31T05:22:05;12.30;99.90
4787;DHT22;62338;48.832;9.422;2022-10-31T05:24:07;12.20;99.90
4787;DHT22;62338;48.832;9.422;2022-10-31T05:26:08;12.10;99.90
4787;DHT22;62338;48.832;9.422;2022-10-31T05:28:10;12.10;99.90
4787;DHT22;62338;48.832;9.422;2022-10-31T05:30:14;12.10;99.90
4787;DHT22;62338;48.832;9.422;2022-10-31T05:32:16;12.00;99.90
4787;DHT22;62338;48.832;9.422;2022-10-31T05:34:17;12.00;99.90
4787;DHT22;62338;48.832;9.422;2022-10-31T05:36:19;11.90;99.90
4787;DHT22;62338;48.832;9.422;2022-10-31T05:38:21;11.80;99.90
4787;DHT22;62338;48.832;9.422;2022-10-31T05:40:22;11.70;99.90
4787;DHT22;62338;48.832;9.422;2022-10-31T05:42:24;11.80;99.90
4787;DHT22;62338;48.832;9.422;2022-10-31T05:44:26;11.70;99.90
4787;DHT22;62338;48.832;9.422;2022-10-31T05:46:28;11.70;99.90
4787;DHT22;62338;48.832;9.422;2022-10-31T05:48:29;11.70;99.90
4787;DHT22;62338;48.832;9.422;2022-10-31T05:50:32;11.60;99.90
4787;DHT22;62338;48.832;9.422;2022-10-31T05:52:33;11.60;99.90
4787;DHT22;62338;48.832;9.422;2022-10-31T05:54:35;11.60;99.90
4787;DHT22;62338;48.832;9.422;2022-10-31T05:56:37;11.60;99.90
4787;DHT22;62338;48.832;9.422;2022-10-31T05:58:38;11.60;99.90
4787;DHT22;62338;48.832;9.422;2022-10-31T06:00:40;11.60;99.90
4787;DHT22;62338;48.832;9.422;2022-10-31T06:02:42;11.60;99.90
4787;DHT22;62338;48.832;9.422;2022-10-31T06:04:43;11.60;99.90
4787;DHT22;62338;48.832;9.422;2022-10-31T06:06:45;11.60;99.90
4787;DHT22;62338;48.832;9.422;2022-10-31T06:08:47;11.60;99.90
4787;DHT22;62338;48.832;9.422;2022-10-31T06:10:48;11.70;99.90
4787;DHT22;62338;48.832;9.422;2022-10-31T06:12:50;11.80;95.50
4787;DHT22;62338;48.832;9.422;2022-10-31T06:14:52;11.80;76.40
4787;DHT22;62338;48.832;9.422;2022-10-31T06:16:54;11.90;54.90
4787;DHT22;62338;48.832;9.422;2022-10-31T06:18:56;11.90;48.60
4787;DHT22;62338;48.832;9.422;2022-10-31T06:20:58;12.00;34.40
4787;DHT22;62338;48.832;9.422;2022-10-31T06:23:00;12.10;31.30
4787;DHT22;62338;48.832;9.422;2022-10-31T06:25:03;12.10;13.70
4787;DHT22;62338;48.832;9.422;2022-10-31T06:27:05;12.10;6.10
4787;DHT22;62338;48.832;9.422;2022-10-31T06:29:07;12.30;1.00
4787;DHT22;62338;48.832;9.422;2022-10-31T06:31:09;12.30;1.00
4787;DHT22;62338;48.832;9.422;2022-10-31T06:33:11;12.40;1.00
4787;DHT22;62338;48.832;9.422;2022-10-31T06:35:12;12.40;1.00
4787;DHT22;62338;48.832;9.422;2022-10-31T06:37:14;12.40;1.00
4787;DHT22;62338;48.832;9.422;2022-10-31T06:39:16;12.60;1.00
4787;DHT22;62338;48.832;9.422;2022-10-31T06:41:18;12.70;1.00
4787;DHT22;62338;48.832;9.422;2022-10-31T06:43:23;12.70;1.00
4787;DHT22;62338;48.832;9.422;2022-10-31T06:45:25;12.80;1.00
4787;DHT22;62338;48.832;9.422;2022-10-31T06:47:27;12.80;1.00
4787;DHT22;62338;48.832;9.422;2022-10-31T06:49:28;12.80;1.00
4787;DHT22;62338;48.832;9.422;2022-10-31T06:51:30;12.90;1.00
4787;DHT22;62338;48.832;9.422;2022-10-31T06:53:32;12.90;1.00
4787;DHT22;62338;48.832;9.422;2022-10-31T06:55:34;13.00;1.00
4787;DHT22;62338;48.832;9.422;2022-10-31T06:57:35;13.10;1.00
4787;DHT22;62338;48.832;9.422;2022-10-31T06:59:37;13.10;1.00
4787;DHT22;62338;48.832;9.422;2022-10-31T07:01:38;13.10;1.00
4787;DHT22;62338;48.832;9.422;2022-10-31T07:03:40;13.20;1.00
4787;DHT22;62338;48.832;9.422;2022-10-31T07:05:42;13.20;1.00
4787;DHT22;62338;48.832;9.422;2022-10-31T07:07:44;13.30;1.00
4787;DHT22;62338;48.832;9.422;2022-10-31T07:09:46;13.40;1.00
4787;DHT22;62338;48.832;9.422;2022-10-31T07:11:47;13.30;1.00
4787;DHT22;62338;48.832;9.422;2022-10-31T07:13:49;13.30;1.00
4787;DHT22;62338;48.832;9.422;2022-10-31T07:15:59;13.30;1.00
4787;DHT22;62338;48.832;9.422;2022-10-31T07:18:05;13.50;1.00
4787;DHT22;62338;48.832;9.422;2022-10-31T07:20:07;13.90;1.00
4787;DHT22;62338;48.832;9.422;2022-10-31T07:22:09;14.40;1.00
4787;DHT22;62338;48.832;9.422;2022-10-31T07:24:10;14.80;1.00
4787;DHT22;62338;48.832;9.422;2022-10-31T07:26:12;15.50;99.90
4787;DHT22;62338;48.832;9.422;2022-10-31T07:28:14;16.00;99.90
4787;DHT22;62338;48.832;9.422;2022-10-31T07:30:16;16.40;1.00
4787;DHT22;62338;48.832;9.422;2022-10-31T07:32:19;16.60;1.00
4787;DHT22;62338;48.832;9.422;2022-10-31T07:34:21;16.60;1.00
4787;DHT22;62338;48.832;9.422;2022-10-31T07:36:23;16.60;99.90
4787;DHT22;62338;48.832;9.422;2022-10-31T07:38:24;16.70;99.90
4787;DHT22;62338;48.832;9.422;2022-10-31T07:40:26;16.70;99.90
4787;DHT22;62338;48.832;9.422;2022-10-31T07:42:28;16.70;99.90
4787;DHT22;62338;48.832;9.422;2022-10-31T07:44:29;16.50;99.90
4787;DHT22;62338;48.832;9.422;2022-10-31T07:46:31;16.30;1.00
4787;DHT22;62338;48.832;9.422;2022-10-31T07:48:32;16.20;1.00
4787;DHT22;62338;48.832;9.422;2022-10-31T07:50:34;16.20;88.20
4787;DHT22;62338;48.832;9.422;2022-10-31T07:52:36;16.20;19.30
4787;DHT22;62338;48.832;9.422;2022-10-31T07:54:38;16.30;99.90
4787;DHT22;62338;48.832;9.422;2022-10-31T07:56:40;16.30;99.90
4787;DHT22;62338;48.832;9.422;2022-10-31T07:58:41;16.40;99.90
4787;DHT22;62338;48.832;9.422;2022-10-31T08:00:46;16.60;91.50
4787;DHT22;62338;48.832;9.422;2022-10-31T08:02:48;16.80;1.00
4787;DHT22;62338;48.832;9.422;2022-10-31T08:04:49;17.20;1.00
4787;DHT22;62338;48.832;9.422;2022-10-31T08:06:51;17.30;1.00
4787;DHT22;62338;48.832;9.422;2022-10-31T08:08:53;17.20;14.10
4787;DHT22;62338;48.832;9.422;2022-10-31T08:10:55;17.20;1.00
4787;DHT22;62338;48.832;9.422;2022-10-31T08:14:59;17.30;99.90
4787;DHT22;62338;48.832;9.422;2022-10-31T08:17:00;17.20;99.90
4787;DHT22;62338;48.832;9.422;2022-10-31T08:19:02;17.10;1.00
4787;DHT22;62338;48.832;9.422;2022-10-31T08:21:04;17.30;99.90
4787;DHT22;62338;48.832;9.422;2022-10-31T08:23:05;17.30;1.00
4787;DHT22;62338;48.832;9.422;2022-10-31T08:25:08;17.50;1.00
4787;DHT22;62338;48.832;9.422;2022-10-31T08:27:10;17.60;99.90
4787;DHT22;62338;48.832;9.422;2022-10-31T08:29:12;17.70;80.80
4787;DHT22;62338;48.832;9.422;2022-10-31T08:31:14;17.70;99.90
4787;DHT22;62338;48.832;9.422;2022-10-31T08:33:17;17.80;1.00
4787;DHT22;62338;48.832;9.422;2022-10-31T08:35:19;17.70;99.90
4787;DHT22;62338;48.832;9.422;2022-10-31T08:37:20;17.80;1.00
4787;DHT22;62338;48.832;9.422;2022-10-31T08:39:22;17.80;1.00
4787;DHT22;62338;48.832;9.422;2022-10-31T08:41:24;17.90;99.90
4787;DHT22;62338;48.832;9.422;2022-10-31T08:43:25;18.10;99.90
4787;DHT22;62338;48.832;9.422;2022-10-31T08:45:28;18.30;99.90
4787;DHT22;62338;48.832;9.422;2022-10-31T08:47:30;18.40;19.40
4787;DHT22;62338;48.832;9.422;2022-10-31T08:49:32;18.00;1.00
4787;DHT22;62338;48.832;9.422;2022-10-31T08:51:33;18.20;1.00
4787;DHT22;62338;48.832;9.422;2022-10-31T08:53:35;18.40;99.90
4787;DHT22;62338;48.832;9.422;2022-10-31T08:55:39;18.70;99.90
4787;DHT22;62338;48.832;9.422;2022-10-31T08:57:41;18.50;59.90
4787;DHT22;62338;48.832;9.422;2022-10-31T08:59:43;18.60;26.40
4787;DHT22;62338;48.832;9.422;2022-10-31T09:01:45;18.80;1.00
4787;DHT22;62338;48.832;9.422;2022-10-31T09:03:46;18.90;64.30
4787;DHT22;62338;48.832;9.422;2022-10-31T09:05:49;19.30;1.00
4787;DHT22;62338;48.832;9.422;2022-10-31T09:07:51;19.50;99.90
4787;DHT22;62338;48.832;9.422;2022-10-31T09:09:53;19.60;99.90
4787;DHT22;62338;48.832;9.422;2022-10-31T09:11:54;19.50;1.00
4787;DHT22;62338;48.832;9.422;2022-10-31T09:13:56;19.50;1.00
4787;DHT22;62338;48.832;9.422;2022-10-31T09:15:58;19.30;1.00
4787;DHT22;62338;48.832;9.422;2022-10-31T09:18:02;19.40;1.00
4787;DHT22;62338;48.832;9.422;2022-10-31T09:20:05;19.40;1.00
4787;DHT22;62338;48.832;9.422;2022-10-31T09:22:06;19.60;99.90
4787;DHT22;62338;48.832;9.422;2022-10-31T09:24:08;19.70;99.90
4787;DHT22;62338;48.832;9.422;2022-10-31T09:26:10;19.90;99.90
4787;DHT22;62338;48.832;9.422;2022-10-31T09:28:14;20.20;99.90
4787;DHT22;62338;48.832;9.422;2022-10-31T09:30:16;20.20;1.00
4787;DHT22;62338;48.832;9.422;2022-10-31T09:32:18;20.20;1.00
4787;DHT22;62338;48.832;9.422;2022-10-31T09:34:19;20.40;1.00
4787;DHT22;62338;48.832;9.422;2022-10-31T09:36:21;20.40;99.90
4787;DHT22;62338;48.832;9.422;2022-10-31T09:38:22;20.50;99.90
4787;DHT22;62338;48.832;9.422;2022-10-31T09:51:50;20.10;99.90
4787;DHT22;62338;48.832;9.422;2022-10-31T09:53:59;20.10;99.90
4787;DHT22;62338;48.832;9.422;2022-10-31T09:56:04;20.30;1.00
4787;DHT22;62338;48.832;9.422;2022-10-31T09:58:16;20.50;99.90
4787;DHT22;62338;48.832;9.422;2022-10-31T10:00:21;20.60;1.00
4787;DHT22;62338;48.832;9.422;2022-10-31T10:02:34;20.60;1.00
4787;DHT22;62338;48.832;9.422;2022-10-31T10:04:58;20.70;99.90
4787;DHT22;62338;48.832;9.422;2022-10-31T10:07:06;20.80;1.00
4787;DHT22;62338;48.832;9.422;2022-10-31T10:09:09;20.80;1.00
4787;DHT22;62338;48.832;9.422;2022-10-31T10:18:15;20.10;1.00
4787;DHT22;62338;48.832;9.422;2022-10-31T10:20:41;20.50;99.90
4787;DHT22;62338;48.832;9.422;2022-10-31T10:23:07;20.80;90.70
4787;DHT22;62338;48.832;9.422;2022-10-31T10:25:24;21.00;99.90
4787;DHT22;62338;48.832;9.422;2022-10-31T10:29:57;21.70;1.00
4787;DHT22;62338;48.832;9.422;2022-10-31T10:32:29;21.90;1.00
4787;DHT22;62338;48.832;9.422;2022-10-31T10:34:34;21.70;1.00
4787;DHT22;62338;48.832;9.422;2022-10-31T10:37:14;21.70;1.00
4787;DHT22;62338;48.832;9.422;2022-10-31T10:39:36;22.00;1.00
4787;DHT22;62338;48.832;9.422;2022-10-31T10:41:43;22.00;1.00
4787;DHT22;62338;48.832;9.422;2022-10-31T10:43:45;22.10;1.00
4787;DHT22;62338;48.832;9.422;2022-10-31T10:48:43;22.30;1.00
4787;DHT22;62338;48.832;9.422;2022-10-31T10:50:50;22.40;1.00
4787;DHT22;62338;48.832;9.422;2022-10-31T10:57:17;22.00;99.90
4787;DHT22;62338;48.832;9.422;2022-10-31T10:59:21;21.80;99.90
4787;DHT22;62338;48.832;9.422;2022-10-31T11:01:23;21.70;1.00
4787;DHT22;62338;48.832;9.422;2022-10-31T11:03:25;21.50;1.00
4787;DHT22;62338;48.832;9.422;2022-10-31T11:07:43;19.80;1.00
4787;DHT22;62338;48.832;9.422;2022-10-31T11:09:45;19.80;1.00
4787;DHT22;62338;48.832;9.422;2022-10-31T11:11:48;19.60;1.00
4787;DHT22;62338;48.832;9.422;2022-10-31T11:13:57;19.40;1.00
4787;DHT22;62338;48.832;9.422;2022-10-31T11:16:07;19.10;1.00
4787;DHT22;62338;48.832;9.422;2022-10-31T11:18:20;18.90;1.00
4787;DHT22;62338;48.832;9.422;2022-10-31T11:22:33;18.40;92.00
4787;DHT22;62338;48.832;9.422;2022-10-31T11:24:40;18.50;99.90
4787;DHT22;62338;48.832;9.422;2022-10-31T11:26:43;18.60;55.00
4787;DHT22;62338;48.832;9.422;2022-10-31T11:28:56;18.70;1.00
4787;DHT22;62338;48.832;9.422;2022-10-31T11:31:00;18.80;1.00
4787;DHT22;62338;48.832;9.422;2022-10-31T11:33:03;18.90;1.00
4787;DHT22;62338;48.832;9.422;2022-10-31T11:35:10;19.00;18.00
4787;DHT22;62338;48.832;9.422;2022-10-31T11:37:16;19.30;1.00
4787;DHT22;62338;48.832;9.422;2022-10-31T11:39:23;19.60;1.00
4787;DHT22;62338;48.832;9.422;2022-10-31T11:41:31;20.00;99.90
4787;DHT22;62338;48.832;9.422;2022-10-31T11:43:34;20.30;99.90
4787;DHT22;62338;48.832;9.422;2022-10-31T11:45:36;20.40;1.00
4787;DHT22;62338;48.832;9.422;2022-10-31T11:47:46;20.60;99.90
4787;DHT22;62338;48.832;9.422;2022-10-31T11:49:49;20.80;1.00
4787;DHT22;62338;48.832;9.422;2022-10-31T11:51:53;20.90;1.00
4787;DHT22;62338;48.832;9.422;2022-10-31T11:53:58;20.90;30.60
4787;DHT22;62338;48.832;9.422;2022-10-31T11:56:13;21.00;99.90
4787;DHT22;62338;48.832;9.422;2022-10-31T11:58:23;20.90;1.00
4787;DHT22;62338;48.832;9.422;2022-10-31T12:00:30;20.90;99.90
4787;DHT22;62338;48.832;9.422;2022-10-31T12:02:32;20.80;99.90
4787;DHT22;62338;48.832;9.422;2022-10-31T12:04:41;21.00;1.00
4787;DHT22;62338;48.832;9.422;2022-10-31T12:06:46;21.00;99.90
4787;DHT22;62338;48.832;9.422;2022-10-31T12:08:48;21.10;1.00
4787;DHT22;62338;48.832;9.422;2022-10-31T12:13:37;21.30;99.90
4787;DHT22;62338;48.832;9.422;2022-10-31T12:15:46;21.30;1.00
4787;DHT22;62338;48.832;9.422;2022-10-31T12:20:45;20.90;1.00
4787;DHT22;62338;48.832;9.422;2022-10-31T12:23:25;20.60;1.00
4787;DHT22;62338;48.832;9.422;2022-10-31T12:28:08;20.20;99.90
4787;DHT22;62338;48.832;9.422;2022-10-31T12:37:42;20.10;99.90
4787;DHT22;62338;48.832;9.422;2022-10-31T12:40:15;20.10;99.90
4787;DHT22;62338;48.832;9.422;2022-10-31T12:49:54;19.90;1.00
4787;DHT22;62338;48.832;9.422;2022-10-31T12:52:13;19.80;1.00
4787;DHT22;62338;48.832;9.422;2022-10-31T12:54:36;19.70;1.00
4787;DHT22;62338;48.832;9.422;2022-10-31T12:59:07;19.50;18.80
4787;DHT22;62338;48.832;9.422;2022-10-31T13:01:17;19.60;99.90
4787;DHT22;62338;48.832;9.422;2022-10-31T13:03:33;19.50;1.00
4787;DHT22;62338;48.832;9.422;2022-10-31T13:05:40;19.30;80.20
4787;DHT22;62338;48.832;9.422;2022-10-31T13:07:48;19.20;62.10
4787;DHT22;62338;48.832;9.422;2022-10-31T13:12:17;19.00;99.90
4787;DHT22;62338;48.832;9.422;2022-10-31T13:14:27;19.10;99.90
4787;DHT22;62338;48.832;9.422;2022-10-31T13:16:38;19.00;23.80
4787;DHT22;62338;48.832;9.422;2022-10-31T13:19:03;18.90;25.60
4787;DHT22;62338;48.832;9.422;2022-10-31T13:21:22;18.90;3.90
4787;DHT22;62338;48.832;9.422;2022-10-31T13:23:30;18.80;27.30
4787;DHT22;62338;48.832;9.422;2022-10-31T13:25:55;18.80;12.80
4787;DHT22;62338;48.832;9.422;2022-10-31T13:28:04;18.70;99.90
4787;DHT22;62338;48.832;9.422;2022-10-31T13:30:23;18.70;99.90
4787;DHT22;62338;48.832;9.422;2022-10-31T13:32:29;18.60;99.90
4787;DHT22;62338;48.832;9.422;2022-10-31T13:34:44;18.70;99.90
4787;DHT22;62338;48.832;9.422;2022-10-31T13:37:01;18.70;99.90
4787;DHT22;62338;48.832;9.422;2022-10-31T13:41:27;18.70;99.90
4787;DHT22;62338;48.832;9.422;2022-10-31T13:45:55;18.70;99.90
4787;DHT22;62338;48.832;9.422;2022-10-31T13:48:19;18.60;99.90
4787;DHT22;62338;48.832;9.422;2022-10-31T13:50:27;18.70;99.90
4787;DHT22;62338;48.832;9.422;2022-10-31T13:52:29;18.70;99.90
4787;DHT22;62338;48.832;9.422;2022-10-31T13:54:33;18.80;99.90
4787;DHT22;62338;48.832;9.422;2022-10-31T13:56:35;18.90;99.90
4787;DHT22;62338;48.832;9.422;2022-10-31T13:58:37;19.20;99.90
4787;DHT22;62338;48.832;9.422;2022-10-31T14:00:39;19.60;71.10
4787;DHT22;62338;48.832;9.422;2022-10-31T14:02:46;20.00;1.00
4787;DHT22;62338;48.832;9.422;2022-10-31T14:04:52;20.40;99.90
4787;DHT22;62338;48.832;9.422;2022-10-31T14:07:19;20.60;1.00
4787;DHT22;62338;48.832;9.422;2022-10-31T14:11:30;20.30;1.00
4787;DHT22;62338;48.832;9.422;2022-10-31T14:13:43;20.30;1.00
4787;DHT22;62338;48.832;9.422;2022-10-31T14:16:05;20.10;1.00
4787;DHT22;62338;48.832;9.422;2022-10-31T14:18:24;20.20;1.00
4787;DHT22;62338;48.832;9.422;2022-10-31T14:20:42;20.50;1.00
4787;DHT22;62338;48.832;9.422;2022-10-31T14:22:44;20.70;1.00
4787;DHT22;62338;48.832;9.422;2022-10-31T14:24:46;20.90;99.90
4787;DHT22;62338;48.832;9.422;2022-10-31T14:29:30;20.70;99.90
4787;DHT22;62338;48.832;9.422;2022-10-31T14:33:42;21.30;1.00
4787;DHT22;62338;48.832;9.422;2022-10-31T14:36:08;21.40;42.70
4787;DHT22;62338;48.832;9.422;2022-10-31T14:40:35;20.80;1.00
4787;DHT22;62338;48.832;9.422;2022-10-31T14:43:15;20.50;1.00
4787;DHT22;62338;48.832;9.422;2022-10-31T14:45:44;20.30;99.90
4787;DHT22;62338;48.832;9.422;2022-10-31T14:50:50;20.10;1.00
4787;DHT22;62338;48.832;9.422;2022-10-31T14:52:56;20.10;1.00
4787;DHT22;62338;48.832;9.422;2022-10-31T14:55:00;20.10;1.00
4787;DHT22;62338;48.832;9.422;2022-10-31T14:57:25;19.90;99.90
4787;DHT22;62338;48.832;9.422;2022-10-31T14:59:32;19.40;99.90
4787;DHT22;62338;48.832;9.422;2022-10-31T15:01:36;18.90;99.90
4787;DHT22;62338;48.832;9.422;2022-10-31T15:03:44;18.50;1.00
4787;DHT22;62338;48.832;9.422;2022-10-31T15:06:12;18.20;1.00
4787;DHT22;62338;48.832;9.422;2022-10-31T15:08:27;17.80;1.00
4787;DHT22;62338;48.832;9.422;2022-10-31T15:10:37;17.60;1.00
4787;DHT22;62338;48.832;9.422;2022-10-31T15:12:38;17.40;1.00
4787;DHT22;62338;48.832;9.422;2022-10-31T15:14:40;17.20;1.00
4787;DHT22;62338;48.832;9.422;2022-10-31T15:16:42;17.10;1.00
4787;DHT22;62338;48.832;9.422;2022-10-31T15:18:54;16.90;1.00
4787;DHT22;62338;48.832;9.422;2022-10-31T15:20:56;16.80;1.00